Wetterdaten: Woche 29.04.02 - 05.05.02 (KW18)
Datum Zeit Temperatur Luftfeuchte Luftdruck Regenmenge Wind Richtung Taupunkt Windchill
29.04.2002 00:00 9.9 C 66 % 1007.7 hPa 0.0 l/m 1.6 km/h (1 Bft) O-SO 3.8 C 9.8 C
29.04.2002 01:00 8.6 C 73 % 1007.7 hPa 0.0 l/m 6.0 km/h (2 Bft) O-SO 3.9 C 7.9 C
29.04.2002 02:00 8.3 C 75 % 1007.7 hPa 0.0 l/m 6.0 km/h (2 Bft) SO 4.2 C 7.4 C
29.04.2002 03:00 8.1 C 74 % 1007.7 hPa 0.0 l/m 6.5 km/h (2 Bft) SO 3.7 C 7.2 C
29.04.2002 04:00 8.5 C 72 % 1007.7 hPa 0.0 l/m 7.0 km/h (2 Bft) SO 3.7 C 7.7 C
29.04.2002 05:00 10.8 C 73 % 1007.7 hPa 0.0 l/m 30.5 km/h (5 Bft) NW 6.2 C 10.8 C
29.04.2002 06:00 10.5 C 67 % 1008.0 hPa 0.0 l/m 32.4 km/h (5 Bft) NW 4.6 C 10.5 C
29.04.2002 07:00 9.4 C 75 % 1008.7 hPa 0.3 l/m 22.4 km/h (4 Bft) NW 5.2 C 7.1 C
29.04.2002 08:00 10.0 C 72 % 1008.7 hPa 0.0 l/m 10.7 km/h (2 Bft) W-NW 5.2 C 9.2 C
29.04.2002 09:00 10.7 C 69 % 1008.9 hPa 0.0 l/m 8.4 km/h (2 Bft) S-SO 5.1 C 10.7 C
29.04.2002 10:00 12.5 C 68 % 1009.3 hPa 0.0 l/m 10.7 km/h (2 Bft) S 6.8 C 12.5 C
29.04.2002 11:00 13.4 C 60 % 1009.1 hPa 0.0 l/m 14.2 km/h (3 Bft) S-SO 5.7 C 13.4 C
29.04.2002 12:00 11.3 C 70 % 1009.7 hPa 0.6 l/m 36.6 km/h (5 Bft) NW 5.9 C 10.6 C
29.04.2002 13:00 9.5 C 81 % 1010.9 hPa 0.3 l/m 37.3 km/h (5 Bft) NW 6.3 C 6.2 C
29.04.2002 14:00 10.5 C 74 % 1011.6 hPa 0.3 l/m 28.7 km/h (4 Bft) NW 6.1 C 8.3 C
29.04.2002 15:00 8.3 C 79 % 1012.8 hPa 0.0 l/m 33.2 km/h (5 Bft) NW 4.9 C 4.3 C
29.04.2002 16:00 10.7 C 66 % 1012.8 hPa 0.0 l/m 22.3 km/h (4 Bft) NW 4.6 C 10.1 C
29.04.2002 17:00 13.3 C 53 % 1012.8 hPa 0.0 l/m 30.3 km/h (5 Bft) NW 3.8 C 13.3 C
29.04.2002 18:00 13.1 C 49 % 1012.8 hPa 0.0 l/m 24.1 km/h (4 Bft) NW 2.6 C 13.1 C
29.04.2002 19:00 12.6 C 49 % 1013.7 hPa 0.0 l/m 11.4 km/h (2 Bft) W 2.1 C 12.6 C
29.04.2002 20:00 10.5 C 65 % 1014.7 hPa 0.0 l/m 7.2 km/h (2 Bft) S-SO 4.1 C 10.3 C
29.04.2002 21:00 9.1 C 77 % 1015.7 hPa 0.0 l/m 3.3 km/h (1 Bft) S-SO 5.2 C 8.9 C
29.04.2002 22:00 7.8 C 84 % 1016.0 hPa 0.0 l/m 1.3 km/h (1 Bft) SO 5.3 C 7.7 C
29.04.2002 23:00 6.6 C 90 % 1016.8 hPa 0.0 l/m 0.4 km/h (0 Bft) SO 5.1 C 6.6 C
30.04.2002 00:00 5.5 C 94 % 1017.0 hPa 0.0 l/m 1.8 km/h (1 Bft) O-SO 4.7 C 5.3 C
30.04.2002 01:00 5.3 C 96 % 1017.0 hPa 0.0 l/m 0.0 km/h (0 Bft) N 4.7 C 5.3 C
30.04.2002 02:00 5.0 C 98 % 1017.0 hPa 0.0 l/m 0.0 km/h (0 Bft) N 4.7 C 5.0 C
30.04.2002 03:00 4.1 C 100 % 1017.0 hPa 0.0 l/m 0.0 km/h (0 Bft) N 4.1 C 4.1 C
30.04.2002 04:00 4.1 C 100 % 1017.0 hPa 0.0 l/m 0.3 km/h (0 Bft) O 4.1 C 4.1 C
30.04.2002 05:00 4.2 C 100 % 1016.6 hPa 0.0 l/m 0.0 km/h (0 Bft) N 4.2 C 4.2 C
30.04.2002 06:00 4.0 C 99 % 1015.9 hPa 0.0 l/m 0.0 km/h (0 Bft) N 3.9 C 4.0 C
30.04.2002 07:00 4.4 C 96 % 1016.6 hPa 0.0 l/m 0.0 km/h (0 Bft) N 3.9 C 4.4 C
30.04.2002 08:00 5.8 C 88 % 1016.1 hPa 0.0 l/m 0.0 km/h (0 Bft) N 4.0 C 5.8 C
30.04.2002 09:00 9.0 C 76 % 1015.9 hPa 0.0 l/m 0.2 km/h (0 Bft) O-SO 5.0 C 9.0 C
30.04.2002 10:00 12.2 C 59 % 1015.9 hPa 0.0 l/m 1.4 km/h (1 Bft) NW 4.4 C 12.2 C
30.04.2002 11:00 13.5 C 53 % 1015.5 hPa 0.0 l/m 3.1 km/h (1 Bft) NW 4.0 C 13.5 C
30.04.2002 12:00 15.4 C 48 % 1014.9 hPa 0.0 l/m 4.5 km/h (1 Bft) SO 4.5 C 15.4 C
30.04.2002 13:00 17.2 C 44 % 1014.0 hPa 0.0 l/m 6.4 km/h (2 Bft) O-SO 4.9 C 17.2 C
30.04.2002 14:00 18.9 C 39 % 1013.2 hPa 0.0 l/m 6.5 km/h (2 Bft) SW 4.7 C 18.9 C
30.04.2002 15:00 20.0 C 41 % 1012.2 hPa 0.0 l/m 9.1 km/h (2 Bft) O-SO 6.5 C 20.0 C
30.04.2002 16:00 20.7 C 38 % 1010.9 hPa 0.0 l/m 6.6 km/h (2 Bft) O-SO 5.7 C 20.7 C
30.04.2002 17:00 20.8 C 37 % 1009.9 hPa 0.0 l/m 5.7 km/h (1 Bft) O-SO 5.4 C 20.8 C
30.04.2002 18:00 20.3 C 40 % 1009.0 hPa 0.0 l/m 6.0 km/h (2 Bft) O-SO 6.3 C 20.3 C
30.04.2002 19:00 18.0 C 51 % 1008.7 hPa 0.0 l/m 6.2 km/h (2 Bft) O-SO 7.7 C 18.0 C
30.04.2002 20:00 15.1 C 59 % 1008.7 hPa 0.0 l/m 4.9 km/h (1 Bft) O-SO 7.0 C 15.1 C
30.04.2002 21:00 12.0 C 73 % 1008.7 hPa 0.0 l/m 4.5 km/h (1 Bft) O-SO 7.4 C 12.0 C
30.04.2002 22:00 10.5 C 81 % 1008.7 hPa 0.0 l/m 3.1 km/h (1 Bft) O-SO 7.4 C 10.5 C
30.04.2002 23:00 9.3 C 87 % 1008.7 hPa 0.0 l/m 2.7 km/h (1 Bft) O-SO 7.2 C 8.9 C
01.05.2002 00:00 8.2 C 92 % 1008.7 hPa 0.0 l/m 2.6 km/h (1 Bft) O-SO 7.0 C 7.9 C
01.05.2002 01:00 7.4 C 95 % 1008.7 hPa 0.0 l/m 3.0 km/h (1 Bft) O-SO 6.7 C 7.0 C
01.05.2002 02:00 6.6 C 98 % 1008.7 hPa 0.0 l/m 1.2 km/h (1 Bft) O-SO 6.3 C 6.4 C
01.05.2002 03:00 6.2 C 100 % 1008.6 hPa 0.0 l/m 0.0 km/h (0 Bft) N 6.2 C 6.2 C
01.05.2002 04:00 5.9 C 100 % 1007.7 hPa 0.0 l/m 0.0 km/h (0 Bft) N 5.9 C 5.9 C
01.05.2002 05:00 6.5 C 99 % 1007.7 hPa 0.0 l/m 0.9 km/h (0 Bft) O-SO 6.4 C 6.4 C
01.05.2002 06:00 6.2 C 100 % 1008.0 hPa 0.0 l/m 5.1 km/h (1 Bft) O-SO 6.2 C 5.4 C
01.05.2002 07:00 8.1 C 93 % 1009.5 hPa 0.0 l/m 8.3 km/h (2 Bft) O-SO 6.9 C 6.6 C
01.05.2002 08:00 12.8 C 69 % 1009.7 hPa 0.0 l/m 11.2 km/h (2 Bft) NW 7.3 C 12.8 C
01.05.2002 09:00 14.3 C 62 % 1009.7 hPa 0.0 l/m 22.9 km/h (4 Bft) NW 7.1 C 14.3 C
01.05.2002 10:00 12.8 C 67 % 1010.5 hPa 0.0 l/m 27.1 km/h (4 Bft) W-NW 6.9 C 12.8 C
01.05.2002 11:00 11.2 C 70 % 1011.1 hPa 0.0 l/m 21.3 km/h (4 Bft) NW 6.1 C 11.2 C
01.05.2002 12:00 11.5 C 71 % 1010.8 hPa 0.0 l/m 13.4 km/h (3 Bft) NW 6.5 C 11.5 C
01.05.2002 13:00 12.4 C 70 % 1010.8 hPa 0.0 l/m 4.6 km/h (1 Bft) W 7.0 C 12.4 C
01.05.2002 14:00 11.9 C 71 % 1010.8 hPa 0.0 l/m 7.4 km/h (2 Bft) W 6.9 C 11.9 C
01.05.2002 15:00 10.8 C 74 % 1010.8 hPa 0.0 l/m 2.4 km/h (1 Bft) W 6.3 C 10.8 C
01.05.2002 16:00 10.3 C 75 % 1010.8 hPa 0.0 l/m 0.4 km/h (0 Bft) S 6.1 C 10.3 C
01.05.2002 17:00 10.0 C 79 % 1010.8 hPa 0.0 l/m 3.0 km/h (1 Bft) W-NW 6.6 C 9.6 C
01.05.2002 18:00 9.6 C 86 % 1010.3 hPa 0.0 l/m 0.5 km/h (0 Bft) W-NW 7.3 C 9.5 C
01.05.2002 19:00 9.5 C 89 % 1009.7 hPa 0.0 l/m 0.0 km/h (0 Bft) N 7.7 C 9.5 C
01.05.2002 20:00 9.0 C 94 % 1009.7 hPa 0.0 l/m 0.1 km/h (0 Bft) W-NW 8.1 C 9.0 C
01.05.2002 21:00 8.8 C 92 % 1009.7 hPa 0.0 l/m 0.2 km/h (0 Bft) O 7.6 C 8.8 C
01.05.2002 22:00 8.6 C 94 % 1009.7 hPa 0.0 l/m 0.2 km/h (0 Bft) NW 7.8 C 8.6 C
01.05.2002 23:00 8.4 C 92 % 1009.7 hPa 0.0 l/m 0.1 km/h (0 Bft) N 7.3 C 8.4 C
02.05.2002 00:00 8.3 C 94 % 1009.7 hPa 0.0 l/m 0.0 km/h (0 Bft) N 7.5 C 8.3 C
02.05.2002 01:00 8.2 C 96 % 1009.7 hPa 0.0 l/m 0.0 km/h (0 Bft) N 7.6 C 8.2 C
02.05.2002 02:00 8.2 C 96 % 1008.7 hPa 0.0 l/m 0.0 km/h (0 Bft) N 7.6 C 8.2 C
02.05.2002 03:00 8.0 C 98 % 1008.7 hPa 0.0 l/m 0.3 km/h (0 Bft) W-NW 7.8 C 8.0 C
02.05.2002 04:00 7.9 C 99 % 1008.7 hPa 0.9 l/m 0.0 km/h (0 Bft) N 7.8 C 7.9 C
02.05.2002 05:00 7.8 C 100 % 1008.9 hPa 1.2 l/m 0.4 km/h (0 Bft) SO 7.8 C 7.8 C
02.05.2002 06:00 7.8 C 100 % 1008.7 hPa 0.6 l/m 0.7 km/h (0 Bft) SO 7.8 C 7.7 C
02.05.2002 07:00 8.1 C 100 % 1008.9 hPa 0.3 l/m 0.2 km/h (0 Bft) SO 8.1 C 8.1 C
02.05.2002 08:00 8.6 C 99 % 1009.7 hPa 0.0 l/m 0.0 km/h (0 Bft) N 8.5 C 8.6 C
02.05.2002 09:00 9.3 C 93 % 1008.9 hPa 0.0 l/m 0.0 km/h (0 Bft) N 8.3 C 9.3 C
02.05.2002 10:00 9.8 C 90 % 1008.7 hPa 0.0 l/m 1.2 km/h (1 Bft) SO 8.3 C 9.8 C
02.05.2002 11:00 10.4 C 86 % 1008.7 hPa 0.0 l/m 0.6 km/h (0 Bft) W 8.2 C 10.4 C
02.05.2002 12:00 11.0 C 78 % 1008.7 hPa 0.0 l/m 6.9 km/h (2 Bft) W-NW 7.3 C 11.0 C
02.05.2002 13:00 10.9 C 75 % 1008.9 hPa 0.0 l/m 13.0 km/h (3 Bft) NW 6.7 C 10.9 C
02.05.2002 14:00 10.6 C 75 % 1009.7 hPa 0.0 l/m 12.9 km/h (3 Bft) NW 6.3 C 10.6 C
02.05.2002 15:00 10.5 C 76 % 1009.7 hPa 0.0 l/m 6.9 km/h (2 Bft) W-NW 6.4 C 10.5 C
02.05.2002 16:00 10.2 C 77 % 1009.6 hPa 0.0 l/m 4.7 km/h (1 Bft) W-NW 6.4 C 10.1 C
02.05.2002 17:00 9.9 C 80 % 1008.9 hPa 0.0 l/m 1.7 km/h (1 Bft) W-NW 6.6 C 9.7 C
02.05.2002 18:00 9.0 C 90 % 1009.7 hPa 0.3 l/m 1.2 km/h (1 Bft) W 7.5 C 8.9 C
02.05.2002 19:00 8.3 C 97 % 1009.6 hPa 0.9 l/m 0.0 km/h (0 Bft) N 7.9 C 8.3 C
02.05.2002 20:00 8.2 C 99 % 1009.7 hPa 1.8 l/m 0.0 km/h (0 Bft) N 8.1 C 8.2 C
02.05.2002 21:00 8.0 C 100 % 1009.7 hPa 0.3 l/m 0.0 km/h (0 Bft) N 8.0 C 8.0 C
02.05.2002 22:00 8.0 C 100 % 1009.7 hPa 0.0 l/m 0.0 km/h (0 Bft) N 8.0 C 8.0 C
02.05.2002 23:00 8.0 C 100 % 1009.4 hPa 0.0 l/m 0.0 km/h (0 Bft) N 8.0 C 8.0 C
03.05.2002 00:00 7.8 C 100 % 1008.9 hPa 0.9 l/m 0.2 km/h (0 Bft) N-NW 7.8 C 7.8 C
03.05.2002 01:00 7.5 C 100 % 1008.7 hPa 0.0 l/m 0.0 km/h (0 Bft) N 7.5 C 7.5 C
03.05.2002 02:00 7.5 C 100 % 1008.7 hPa 0.0 l/m 0.0 km/h (0 Bft) N 7.5 C 7.5 C
03.05.2002 03:00 7.4 C 100 % 1008.5 hPa 0.6 l/m 0.0 km/h (0 Bft) N 7.4 C 7.4 C
03.05.2002 04:00 7.2 C 100 % 1007.7 hPa 0.0 l/m 0.0 km/h (0 Bft) N 7.2 C 7.2 C
03.05.2002 05:00 7.2 C 100 % 1007.7 hPa 0.6 l/m 0.0 km/h (0 Bft) N 7.2 C 7.2 C
03.05.2002 06:00 7.2 C 100 % 1007.7 hPa 0.6 l/m 0.4 km/h (0 Bft) NW 7.2 C 7.1 C
03.05.2002 07:00 7.1 C 100 % 1008.5 hPa 0.3 l/m 0.3 km/h (0 Bft) NW 7.1 C 7.1 C
03.05.2002 08:00 6.8 C 100 % 1008.7 hPa 0.3 l/m 0.7 km/h (0 Bft) NW 6.8 C 6.7 C
03.05.2002 09:00 6.9 C 100 % 1008.6 hPa 0.9 l/m 0.5 km/h (0 Bft) NW 6.9 C 6.8 C
03.05.2002 10:00 7.0 C 100 % 1008.6 hPa 1.5 l/m 0.6 km/h (0 Bft) NW 7.0 C 6.9 C
03.05.2002 11:00 7.0 C 100 % 1008.7 hPa 2.4 l/m 0.7 km/h (0 Bft) NW 7.0 C 6.9 C
03.05.2002 12:00 7.1 C 100 % 1008.7 hPa 3.6 l/m 0.0 km/h (0 Bft) N 7.1 C 7.1 C
03.05.2002 13:00 7.3 C 100 % 1008.7 hPa 0.9 l/m 0.2 km/h (0 Bft) N 7.3 C 7.3 C
03.05.2002 14:00 7.2 C 100 % 1009.4 hPa 4.5 l/m 0.7 km/h (0 Bft) NW 7.2 C 7.1 C
03.05.2002 15:00 7.4 C 100 % 1009.7 hPa 2.4 l/m 0.1 km/h (0 Bft) W-SW 7.4 C 7.4 C
03.05.2002 16:00 7.5 C 100 % 1009.7 hPa 0.9 l/m 0.1 km/h (0 Bft) SO 7.5 C 7.5 C
03.05.2002 17:00 7.6 C 100 % 1010.1 hPa 1.8 l/m 1.3 km/h (1 Bft) SO 7.6 C 7.5 C
03.05.2002 18:00 7.6 C 100 % 1010.8 hPa 0.6 l/m 0.4 km/h (0 Bft) SO 7.6 C 7.6 C
03.05.2002 19:00 7.5 C 100 % 1010.8 hPa 0.9 l/m 0.7 km/h (0 Bft) SO 7.5 C 7.4 C
03.05.2002 20:00 7.4 C 100 % 1010.8 hPa 0.9 l/m 0.0 km/h (0 Bft) N 7.4 C 7.4 C
03.05.2002 21:00 7.3 C 100 % 1011.7 hPa 0.3 l/m 0.1 km/h (0 Bft) NW 7.3 C 7.3 C
03.05.2002 22:00 6.9 C 100 % 1011.8 hPa 0.0 l/m 0.9 km/h (0 Bft) NW 6.9 C 6.9 C
03.05.2002 23:00 6.8 C 100 % 1011.4 hPa 0.3 l/m 0.1 km/h (0 Bft) N 6.8 C 6.8 C
04.05.2002 00:00 6.7 C 100 % 1011.8 hPa 0.9 l/m 0.4 km/h (0 Bft) S-SO 6.7 C 6.7 C
04.05.2002 01:00 6.7 C 100 % 1011.8 hPa 0.6 l/m 0.6 km/h (0 Bft) SO 6.7 C 6.7 C
04.05.2002 02:00 6.6 C 100 % 1011.6 hPa 0.3 l/m 1.3 km/h (1 Bft) SO 6.6 C 6.5 C
04.05.2002 03:00 6.4 C 100 % 1011.1 hPa 0.0 l/m 1.3 km/h (1 Bft) SO 6.4 C 6.4 C
04.05.2002 04:00 6.3 C 100 % 1010.8 hPa 0.6 l/m 0.0 km/h (0 Bft) N 6.3 C 6.3 C
04.05.2002 05:00 6.0 C 100 % 1010.7 hPa 0.0 l/m 0.7 km/h (0 Bft) SO 6.0 C 6.0 C
04.05.2002 06:00 6.1 C 100 % 1010.7 hPa 0.0 l/m 0.1 km/h (0 Bft) N 6.1 C 6.1 C
04.05.2002 07:00 6.2 C 100 % 1010.8 hPa 0.3 l/m 0.3 km/h (0 Bft) SO 6.2 C 6.2 C
04.05.2002 08:00 6.3 C 100 % 1010.6 hPa 0.0 l/m 0.0 km/h (0 Bft) N 6.3 C 6.3 C
04.05.2002 09:00 6.6 C 100 % 1010.8 hPa 0.0 l/m 1.8 km/h (1 Bft) SO 6.6 C 6.4 C
04.05.2002 10:00 7.0 C 100 % 1010.4 hPa 0.0 l/m 0.0 km/h (0 Bft) N 7.0 C 7.0 C
04.05.2002 11:00 7.4 C 100 % 1009.9 hPa 0.3 l/m 0.0 km/h (0 Bft) N 7.4 C 7.4 C
04.05.2002 12:00 7.7 C 100 % 1009.3 hPa 0.9 l/m 0.0 km/h (0 Bft) N 7.7 C 7.7 C
04.05.2002 13:00 7.6 C 100 % 1009.6 hPa 3.6 l/m 0.0 km/h (0 Bft) N 7.6 C 7.6 C
04.05.2002 14:00 7.5 C 100 % 1009.7 hPa 4.8 l/m 0.9 km/h (0 Bft) NW 7.5 C 7.3 C
04.05.2002 15:00 7.1 C 100 % 1010.3 hPa 3.6 l/m 1.2 km/h (1 Bft) SO 7.1 C 7.1 C
04.05.2002 16:00 6.9 C 100 % 1010.8 hPa 2.1 l/m 1.8 km/h (1 Bft) NW 6.9 C 6.7 C
04.05.2002 17:00 6.7 C 98 % 1011.1 hPa 0.0 l/m 1.1 km/h (1 Bft) NW 6.5 C 6.6 C
04.05.2002 18:00 6.1 C 98 % 1011.6 hPa 0.0 l/m 3.1 km/h (1 Bft) NW 5.8 C 5.6 C
04.05.2002 19:00 5.7 C 98 % 1012.5 hPa 0.0 l/m 2.5 km/h (1 Bft) W-NW 5.4 C 5.3 C
04.05.2002 20:00 5.3 C 99 % 1012.9 hPa 0.3 l/m 0.3 km/h (0 Bft) N 5.2 C 5.3 C
04.05.2002 21:00 5.1 C 100 % 1013.9 hPa 0.0 l/m 2.2 km/h (1 Bft) W-NW 5.1 C 4.7 C
04.05.2002 22:00 5.0 C 100 % 1013.9 hPa 0.0 l/m 1.7 km/h (1 Bft) SO 5.0 C 4.7 C
04.05.2002 23:00 5.0 C 100 % 1013.9 hPa 0.0 l/m 1.2 km/h (1 Bft) SO 5.0 C 4.8 C
05.05.2002 00:00 5.0 C 99 % 1013.9 hPa 0.0 l/m 1.8 km/h (1 Bft) W-NW 4.8 C 4.7 C
05.05.2002 01:00 5.0 C 99 % 1013.9 hPa 0.0 l/m 0.7 km/h (0 Bft) SO 4.8 C 5.0 C
05.05.2002 02:00 5.0 C 100 % 1013.9 hPa 0.0 l/m 0.3 km/h (0 Bft) O-SO 5.0 C 5.0 C
05.05.2002 03:00 4.9 C 100 % 1013.9 hPa 0.0 l/m 0.6 km/h (0 Bft) W 4.9 C 4.8 C
05.05.2002 04:00 4.7 C 100 % 1013.9 hPa 0.0 l/m 0.0 km/h (0 Bft) N 4.7 C 4.7 C
05.05.2002 05:00 4.8 C 100 % 1013.9 hPa 0.0 l/m 0.0 km/h (0 Bft) N 4.8 C 4.8 C
05.05.2002 06:00 4.8 C 100 % 1013.9 hPa 0.0 l/m 0.1 km/h (0 Bft) SO 4.8 C 4.8 C
05.05.2002 07:00 5.2 C 100 % 1013.9 hPa 0.0 l/m 0.0 km/h (0 Bft) N 5.2 C 5.2 C
05.05.2002 08:00 6.2 C 92 % 1013.9 hPa 0.0 l/m 0.0 km/h (0 Bft) N 5.0 C 6.2 C
05.05.2002 09:00 6.9 C 85 % 1014.3 hPa 0.0 l/m 0.4 km/h (0 Bft) W-NW 4.5 C 6.9 C
05.05.2002 10:00 7.4 C 79 % 1014.8 hPa 0.0 l/m 9.4 km/h (2 Bft) NW 4.0 C 5.8 C
05.05.2002 11:00 8.3 C 74 % 1014.9 hPa 0.0 l/m 11.4 km/h (2 Bft) NW 3.9 C 6.5 C
05.05.2002 12:00 9.1 C 71 % 1014.9 hPa 0.0 l/m 5.6 km/h (1 Bft) W-NW 4.2 C 8.3 C
05.05.2002 13:00 9.9 C 69 % 1014.9 hPa 0.0 l/m 4.2 km/h (1 Bft) W-NW 4.5 C 9.4 C
05.05.2002 14:00 9.4 C 68 % 1014.9 hPa 0.0 l/m 8.6 km/h (2 Bft) W-NW 3.7 C 8.2 C
05.05.2002 15:00 10.7 C 61 % 1014.9 hPa 0.0 l/m 15.9 km/h (3 Bft) NW 3.5 C 10.4 C
05.05.2002 16:00 10.8 C 59 % 1014.9 hPa 0.0 l/m 21.0 km/h (4 Bft) NW 3.1 C 10.5 C
05.05.2002 17:00 10.0 C 60 % 1015.3 hPa 0.0 l/m 22.3 km/h (4 Bft) NW 2.7 C 8.5 C
05.05.2002 18:00 9.9 C 59 % 1015.9 hPa 0.0 l/m 14.7 km/h (3 Bft) NW 2.2 C 8.6 C
05.05.2002 19:00 8.8 C 66 % 1016.5 hPa 0.0 l/m 7.6 km/h (2 Bft) NW 2.8 C 7.8 C
05.05.2002 20:00 7.7 C 76 % 1017.0 hPa 0.0 l/m 4.5 km/h (1 Bft) W-NW 3.7 C 7.1 C
05.05.2002 21:00 7.4 C 78 % 1017.7 hPa 0.0 l/m 2.4 km/h (1 Bft) NW 3.8 C 7.0 C
05.05.2002 22:00 6.9 C 79 % 1018.0 hPa 0.0 l/m 0.2 km/h (0 Bft) W-NW 3.5 C 6.9 C
05.05.2002 23:00 6.6 C 82 % 1018.0 hPa 0.0 l/m 1.6 km/h (1 Bft) W-NW 3.7 C 6.4 C
Min-Datum _ 30.04.02 30.04.02 29.04.02 - 29.04.02 - 29.04.02 04.05.02
_ Min-Zeit 03:31 17:07 00:00 - 00:15 - 19:27 21:38
Minimum _ 3.8 C 34 % 1007.7 hPa - 0.0 km/h (0 Bft) - -0.2 C 1.6 C
Max-Datum _ 30.04.02 30.04.02 05.05.02 04.05.02 29.04.02 - 02.05.02 30.04.02
_ Max-Zeit 16:43 03:04 22:00 13:00 15:06 - 11:57 16:43
Maximum _ 21.1 C 100 % 1018.0 hPa 4.8 l/m 59.7 km/h
NW (7 Bft)
- 9.1 C 21.1 C
Durchschnitt _ 8.7 C 85 % 1011.3 hPa #51.3 l/m 4.9 km/h (1 Bft) NW 6.0 C 8.5 C

Durchschnitt Minimum Temp.8.2 C
Durchschnitt Maximum Temp.9.3 C
© Kaiko 2002